CheckWX is a tool to help pilots better visualize weather data.  It is not intended as a substitute for an official pre-flight weather briefing.

20:43:23 UTC

KCCA METAR
Clinton Municipal Airport
Clinton, Arkansas, USA
Current

8 mins ago

KCCA 182035Z AUTO VRB04G10KT 10SM CLR 05/M08 A3041 RMK AO2
Observed
Feb-18 @ 20:35 UTC
Wind
  • Variable at 4 KTS
  • Gusting to 10 KTS
Visibility
10 SM
Flight Rules
VFR
Cloud Levels
  • Clear skies
Temperature
C / 41°F
Dewpoint
-8°C / 18°F
Humidity
39%
Altimeter
30.41" Hg
Pressure
1029.81 hPa
Previous

28 mins ago

KCCA 182015Z AUTO VRB04G10KT 10SM CLR 04/M08 A3041 RMK AO2
Observed
Feb-18 @ 20:15 UTC
Wind
  • Variable at 4 KTS
  • Gusting to 10 KTS
Visibility
10 SM
Flight Rules
VFR
Cloud Levels
  • Clear skies
Temperature
C / 39°F
Dewpoint
-8°C / 18°F
Humidity
42%
Altimeter
30.41" Hg
Pressure
1029.81 hPa
Previous

48 mins ago

KCCA 181955Z AUTO VRB04KT 10SM CLR 04/M08 A3041 RMK AO2
Observed
Feb-18 @ 19:55 UTC
Wind
  • Variable at 4 KTS
Visibility
10 SM
Flight Rules
VFR
Cloud Levels
  • Clear skies
Temperature
C / 39°F
Dewpoint
-8°C / 18°F
Humidity
42%
Altimeter
30.41" Hg
Pressure
1029.81 hPa